Aviation Digital Data Service (ADDS)

Output produced by METARs form (1728 UTC 24 June 2019)
found at http://www.aviationweather.gov/metar/data/
 
Forecast for: VEBS (BHUBANESWAR , IN)
Text: TAF VEBS 241700Z 2418/2503 18006KT 4000 HZ FEW020
Forecast period: 1800 UTC 24 June 2019 to 0300 UTC 25 June 2019
Forecast type: FROM: standard forecast or significant change
Winds: from the S (180 degrees) at 7 MPH (6 knots; 3.1 m/s)
Visibility: 2.49 miles (4.01 km)
Ceiling: at least 12,000 feet AGL
Clouds: few clouds at 2000 feet AGL
Weather: HZ  (haze)
Text: TEMPO 2418/2422 2000 -TSRA SCT018 FEW030CB BKN090
Forecast period: 1800 to 2200 UTC 24 June 2019
Forecast type: TEMPORARY: The following changes expected for less than half the time period
Visibility: 1.24 miles (2.00 km)
Ceiling: 9000 feet AGL
Clouds: scattered clouds at 1800 feet AGL
few clouds at 3000 feet AGL
broken clouds at 9000 feet AGL
Weather: -TSRA  (light rain associated with thunderstorm(s))